sensor_id;sensor_type;location;lat;lon;timestamp;pressure;altitude;pressure_sealevel;temperature;humidity
78117;BME280;69042;59.120;37.904;2024-02-23T00:01:44;100327.09;;;-1.05;67.24
78117;BME280;69042;59.120;37.904;2024-02-23T00:04:11;100338.22;;;-1.04;67.25
78117;BME280;69042;59.120;37.904;2024-02-23T00:06:37;100345.91;;;-1.04;67.50
78117;BME280;69042;59.120;37.904;2024-02-23T00:09:03;100332.22;;;-1.08;67.14
78117;BME280;69042;59.120;37.904;2024-02-23T00:11:30;100344.22;;;-1.03;67.39
78117;BME280;69042;59.120;37.904;2024-02-23T00:13:58;100341.66;;;-1.02;67.79
78117;BME280;69042;59.120;37.904;2024-02-23T00:16:24;100346.78;;;-1.02;67.69
78117;BME280;69042;59.120;37.904;2024-02-23T00:18:50;100340.84;;;-1.01;67.64
78117;BME280;69042;59.120;37.904;2024-02-23T00:21:16;100351.97;;;-0.97;67.46
78117;BME280;69042;59.120;37.904;2024-02-23T00:23:42;100345.97;;;-1.01;67.67
78117;BME280;69042;59.120;37.904;2024-02-23T00:26:08;100350.25;;;-0.98;67.44
78117;BME280;69042;59.120;37.904;2024-02-23T00:28:35;100345.97;;;-0.98;67.32
78117;BME280;69042;59.120;37.904;2024-02-23T00:31:01;100352.78;;;-1.00;67.63
78117;BME280;69042;59.120;37.904;2024-02-23T00:33:27;100352.78;;;-1.00;67.78
78117;BME280;69042;59.120;37.904;2024-02-23T00:35:53;100340.00;;;-0.98;67.54
78117;BME280;69042;59.120;37.904;2024-02-23T00:38:19;100346.81;;;-0.97;67.42
78117;BME280;69042;59.120;37.904;2024-02-23T00:40:45;100342.56;;;-0.98;67.44
78117;BME280;69042;59.120;37.904;2024-02-23T00:43:12;100347.72;;;-0.94;67.50
78117;BME280;69042;59.120;37.904;2024-02-23T00:45:38;100356.25;;;-0.95;67.66
78117;BME280;69042;59.120;37.904;2024-02-23T00:48:04;100352.84;;;-0.94;67.73
78117;BME280;69042;59.120;37.904;2024-02-23T00:50:32;100348.56;;;-0.96;67.57
78117;BME280;69042;59.120;37.904;2024-02-23T00:52:58;100349.44;;;-0.91;67.42
78117;BME280;69042;59.120;37.904;2024-02-23T00:55:24;100355.47;;;-0.89;67.95
78117;BME280;69042;59.120;37.904;2024-02-23T00:57:52;100357.16;;;-0.88;67.67
78117;BME280;69042;59.120;37.904;2024-02-23T01:00:18;100358.03;;;-0.89;67.51
78117;BME280;69042;59.120;37.904;2024-02-23T01:02:45;100352.88;;;-0.91;66.95
78117;BME280;69042;59.120;37.904;2024-02-23T01:05:11;100347.75;;;-0.91;67.50
78117;BME280;69042;59.120;37.904;2024-02-23T01:07:37;100350.31;;;-0.92;67.65
78117;BME280;69042;59.120;37.904;2024-02-23T01:10:03;100358.00;;;-0.92;67.41
78117;BME280;69042;59.120;37.904;2024-02-23T01:12:30;100358.88;;;-0.89;67.46
78117;BME280;69042;59.120;37.904;2024-02-23T01:14:56;100346.03;;;-0.92;67.53
78117;BME280;69042;59.120;37.904;2024-02-23T01:17:22;100351.13;;;-0.96;67.70
78117;BME280;69042;59.120;37.904;2024-02-23T01:19:48;100356.25;;;-0.96;67.85
78117;BME280;69042;59.120;37.904;2024-02-23T01:22:15;100345.09;;;-1.00;67.89
78117;BME280;69042;59.120;37.904;2024-02-23T01:24:41;100361.34;;;-0.99;67.71
78117;BME280;69042;59.120;37.904;2024-02-23T01:27:07;100352.75;;;-1.05;67.92
78117;BME280;69042;59.120;37.904;2024-02-23T01:29:34;100351.06;;;-1.02;67.71
78117;BME280;69042;59.120;37.904;2024-02-23T01:32:00;100350.22;;;-1.03;67.78
78117;BME280;69042;59.120;37.904;2024-02-23T01:34:27;100355.34;;;-1.03;67.53
78117;BME280;69042;59.120;37.904;2024-02-23T01:36:53;100357.03;;;-1.05;68.23
78117;BME280;69042;59.120;37.904;2024-02-23T01:39:19;100358.69;;;-1.09;67.94
78117;BME280;69042;59.120;37.904;2024-02-23T01:41:45;100356.94;;;-1.13;68.01
78117;BME280;69042;59.120;37.904;2024-02-23T01:44:12;100353.53;;;-1.15;68.19
78117;BME280;69042;59.120;37.904;2024-02-23T01:46:38;100347.53;;;-1.15;68.35
78117;BME280;69042;59.120;37.904;2024-02-23T01:49:06;100356.94;;;-1.16;68.05
78117;BME280;69042;59.120;37.904;2024-02-23T01:51:33;100357.81;;;-1.14;68.03
78117;BME280;69042;59.120;37.904;2024-02-23T01:54:00;100356.09;;;-1.15;67.91
78117;BME280;69042;59.120;37.904;2024-02-23T01:56:27;100353.56;;;-1.12;68.19
78117;BME280;69042;59.120;37.904;2024-02-23T01:58:55;100347.53;;;-1.14;68.08
78117;BME280;69042;59.120;37.904;2024-02-23T02:01:21;100351.81;;;-1.13;68.56
78117;BME280;69042;59.120;37.904;2024-02-23T02:03:47;100353.56;;;-1.12;68.34
78117;BME280;69042;59.120;37.904;2024-02-23T02:06:14;100356.97;;;-1.11;68.17
78117;BME280;69042;59.120;37.904;2024-02-23T02:08:41;100354.38;;;-1.14;68.32
78117;BME280;69042;59.120;37.904;2024-02-23T02:11:07;100360.38;;;-1.12;68.16
78117;BME280;69042;59.120;37.904;2024-02-23T02:13:33;100367.22;;;-1.11;68.03
78117;BME280;69042;59.120;37.904;2024-02-23T02:16:00;100355.22;;;-1.15;67.97
78117;BME280;69042;59.120;37.904;2024-02-23T02:18:27;100363.78;;;-1.13;68.37
78117;BME280;69042;59.120;37.904;2024-02-23T02:20:55;100366.34;;;-1.13;67.99
78117;BME280;69042;59.120;37.904;2024-02-23T02:23:22;100368.06;;;-1.14;68.03
78117;BME280;69042;59.120;37.904;2024-02-23T02:25:56;100368.03;;;-1.15;68.30
78117;BME280;69042;59.120;37.904;2024-02-23T02:28:23;100368.84;;;-1.19;68.31
78117;BME280;69042;59.120;37.904;2024-02-23T02:30:50;100368.91;;;-1.16;68.11
78117;BME280;69042;59.120;37.904;2024-02-23T02:33:17;100370.56;;;-1.18;68.26
78117;BME280;69042;59.120;37.904;2024-02-23T02:35:43;100357.72;;;-1.20;68.27
78117;BME280;69042;59.120;37.904;2024-02-23T02:38:12;100347.47;;;-1.20;68.31
78117;BME280;69042;59.120;37.904;2024-02-23T02:40:39;100351.78;;;-1.19;68.31
78117;BME280;69042;59.120;37.904;2024-02-23T02:43:05;100351.78;;;-1.17;68.55
78117;BME280;69042;59.120;37.904;2024-02-23T02:45:32;100364.63;;;-1.14;68.06
78117;BME280;69042;59.120;37.904;2024-02-23T02:48:01;100362.94;;;-1.14;68.30
78117;BME280;69042;59.120;37.904;2024-02-23T02:50:30;100356.94;;;-1.13;68.22
78117;BME280;69042;59.120;37.904;2024-02-23T02:52:57;100359.50;;;-1.16;67.96
78117;BME280;69042;59.120;37.904;2024-02-23T02:55:23;100360.31;;;-1.18;68.28
78117;BME280;69042;59.120;37.904;2024-02-23T02:57:49;100358.63;;;-1.18;68.17
78117;BME280;69042;59.120;37.904;2024-02-23T03:00:15;100369.72;;;-1.17;68.53
78117;BME280;69042;59.120;37.904;2024-02-23T03:02:42;100357.72;;;-1.20;68.39
78117;BME280;69042;59.120;37.904;2024-02-23T03:05:08;100365.44;;;-1.20;68.44
78117;BME280;69042;59.120;37.904;2024-02-23T03:07:34;100363.72;;;-1.21;69.11
78117;BME280;69042;59.120;37.904;2024-02-23T03:10:00;100362.88;;;-1.21;68.64
78117;BME280;69042;59.120;37.904;2024-02-23T03:12:26;100364.56;;;-1.20;68.58
78117;BME280;69042;59.120;37.904;2024-02-23T03:14:53;100370.56;;;-1.20;68.59
78117;BME280;69042;59.120;37.904;2024-02-23T03:17:19;100362.88;;;-1.20;68.82
78117;BME280;69042;59.120;37.904;2024-02-23T03:19:45;100363.72;;;-1.21;68.48
78117;BME280;69042;59.120;37.904;2024-02-23T03:22:11;100367.97;;;-1.23;68.59
78117;BME280;69042;59.120;37.904;2024-02-23T03:24:38;100366.28;;;-1.21;69.26
78117;BME280;69042;59.120;37.904;2024-02-23T03:27:04;100367.13;;;-1.23;68.40
78117;BME280;69042;59.120;37.904;2024-02-23T03:29:30;100368.81;;;-1.22;68.87
78117;BME280;69042;59.120;37.904;2024-02-23T03:31:56;100378.22;;;-1.23;68.78
78117;BME280;69042;59.120;37.904;2024-02-23T03:34:23;100368.78;;;-1.24;68.44
78117;BME280;69042;59.120;37.904;2024-02-23T03:36:49;100378.19;;;-1.24;69.14
78117;BME280;69042;59.120;37.904;2024-02-23T03:39:18;100369.63;;;-1.27;69.02
78117;BME280;69042;59.120;37.904;2024-02-23T03:41:44;100371.38;;;-1.26;69.11
78117;BME280;69042;59.120;37.904;2024-02-23T03:44:10;100367.13;;;-1.23;69.19
78117;BME280;69042;59.120;37.904;2024-02-23T03:46:37;100373.09;;;-1.23;69.00
78117;BME280;69042;59.120;37.904;2024-02-23T03:49:03;100379.09;;;-1.19;68.68
78117;BME280;69042;59.120;37.904;2024-02-23T03:51:29;100376.53;;;-1.21;68.71
78117;BME280;69042;59.120;37.904;2024-02-23T03:53:55;100367.16;;;-1.19;69.28
78117;BME280;69042;59.120;37.904;2024-02-23T03:56:22;100358.59;;;-1.19;68.97
78117;BME280;69042;59.120;37.904;2024-02-23T03:58:48;100366.31;;;-1.18;68.80
78117;BME280;69042;59.120;37.904;2024-02-23T04:01:14;100363.72;;;-1.19;69.20
78117;BME280;69042;59.120;37.904;2024-02-23T04:03:40;100365.44;;;-1.18;68.66
78117;BME280;69042;59.120;37.904;2024-02-23T04:06:07;100369.72;;;-1.19;68.98
78117;BME280;69042;59.120;37.904;2024-02-23T04:08:33;100368.84;;;-1.19;69.03
78117;BME280;69042;59.120;37.904;2024-02-23T04:10:59;100365.41;;;-1.23;69.14
78117;BME280;69042;59.120;37.904;2024-02-23T04:13:25;100373.97;;;-1.21;69.00
78117;BME280;69042;59.120;37.904;2024-02-23T04:15:52;100373.94;;;-1.22;69.28
78117;BME280;69042;59.120;37.904;2024-02-23T04:18:18;100370.56;;;-1.21;69.12
78117;BME280;69042;59.120;37.904;2024-02-23T04:20:44;100366.28;;;-1.21;69.10
78117;BME280;69042;59.120;37.904;2024-02-23T04:23:10;100372.25;;;-1.20;69.15
78117;BME280;69042;59.120;37.904;2024-02-23T04:25:36;100343.88;;;-1.40;69.20
78117;BME280;69042;59.120;37.904;2024-02-23T04:28:02;100374.84;;;-1.19;69.28
78117;BME280;69042;59.120;37.904;2024-02-23T04:30:29;100376.56;;;-1.18;69.22
78117;BME280;69042;59.120;37.904;2024-02-23T04:32:55;100368.03;;;-1.17;69.41
78117;BME280;69042;59.120;37.904;2024-02-23T04:35:21;100371.47;;;-1.15;69.30
78117;BME280;69042;59.120;37.904;2024-02-23T04:37:47;100373.19;;;-1.14;69.08
78117;BME280;69042;59.120;37.904;2024-02-23T04:40:15;100366.31;;;-1.18;69.06
78117;BME280;69042;59.120;37.904;2024-02-23T04:42:43;100372.31;;;-1.16;68.82
78117;BME280;69042;59.120;37.904;2024-02-23T04:45:10;100366.34;;;-1.15;68.88
78117;BME280;69042;59.120;37.904;2024-02-23T04:47:37;100360.31;;;-1.18;69.15
78117;BME280;69042;59.120;37.904;2024-02-23T04:50:04;100362.03;;;-1.19;69.06
78117;BME280;69042;59.120;37.904;2024-02-23T04:52:31;100362.03;;;-1.19;69.02
78117;BME280;69042;59.120;37.904;2024-02-23T04:54:57;100364.59;;;-1.19;69.17
78117;BME280;69042;59.120;37.904;2024-02-23T04:57:23;100372.31;;;-1.16;69.18
78117;BME280;69042;59.120;37.904;2024-02-23T04:59:49;100379.16;;;-1.13;69.51
78117;BME280;69042;59.120;37.904;2024-02-23T05:02:15;100366.31;;;-1.16;69.23
78117;BME280;69042;59.120;37.904;2024-02-23T05:04:42;100383.50;;;-1.08;69.28
78117;BME280;69042;59.120;37.904;2024-02-23T05:07:08;100380.97;;;-1.05;69.13
78117;BME280;69042;59.120;37.904;2024-02-23T05:09:34;100382.69;;;-1.02;68.90
78117;BME280;69042;59.120;37.904;2024-02-23T05:12:01;100381.00;;;-1.00;69.39
78117;BME280;69042;59.120;37.904;2024-02-23T05:14:27;100380.97;;;-1.01;69.09
78117;BME280;69042;59.120;37.904;2024-02-23T05:16:53;100382.75;;;-0.96;69.10
78117;BME280;69042;59.120;37.904;2024-02-23T05:19:19;100377.59;;;-0.97;69.97
78117;BME280;69042;59.120;37.904;2024-02-23T05:21:45;100375.88;;;-1.00;70.04
78117;BME280;69042;59.120;37.904;2024-02-23T05:24:11;100380.13;;;-1.02;69.85
78117;BME280;69042;59.120;37.904;2024-02-23T05:26:38;100387.03;;;-0.96;69.67
78117;BME280;69042;59.120;37.904;2024-02-23T05:29:04;100385.31;;;-0.96;69.41
78117;BME280;69042;59.120;37.904;2024-02-23T05:31:47;100384.47;;;-0.95;69.54
78117;BME280;69042;59.120;37.904;2024-02-23T05:34:14;100376.84;;;-0.89;69.70
78117;BME280;69042;59.120;37.904;2024-02-23T05:36:40;100386.25;;;-0.88;69.65
78117;BME280;69042;59.120;37.904;2024-02-23T05:39:07;100379.44;;;-0.86;69.68
78117;BME280;69042;59.120;37.904;2024-02-23T05:41:33;100366.56;;;-0.89;69.39
78117;BME280;69042;59.120;37.904;2024-02-23T05:44:00;100383.75;;;-0.83;69.37
78117;BME280;69042;59.120;37.904;2024-02-23T05:46:26;100381.22;;;-0.78;69.69
78117;BME280;69042;59.120;37.904;2024-02-23T05:48:52;100376.09;;;-0.75;69.35
78117;BME280;69042;59.120;37.904;2024-02-23T05:51:19;100376.97;;;-0.70;69.65
78117;BME280;69042;59.120;37.904;2024-02-23T05:53:45;100374.47;;;-0.67;69.28
78117;BME280;69042;59.120;37.904;2024-02-23T05:56:11;100374.47;;;-0.67;69.37
78117;BME280;69042;59.120;37.904;2024-02-23T05:58:37;100372.75;;;-0.65;69.32
78117;BME280;69042;59.120;37.904;2024-02-23T06:01:04;100369.31;;;-0.66;69.28
78117;BME280;69042;59.120;37.904;2024-02-23T06:03:30;100382.19;;;-0.63;69.32
78117;BME280;69042;59.120;37.904;2024-02-23T06:05:56;100380.47;;;-0.62;69.25
78117;BME280;69042;59.120;37.904;2024-02-23T06:08:22;100379.63;;;-0.61;69.07
78117;BME280;69042;59.120;37.904;2024-02-23T06:10:49;100378.75;;;-0.61;69.64
78117;BME280;69042;59.120;37.904;2024-02-23T06:13:15;100385.63;;;-0.57;69.59
78117;BME280;69042;59.120;37.904;2024-02-23T06:15:41;100380.50;;;-0.57;69.50
78117;BME280;69042;59.120;37.904;2024-02-23T06:18:08;100386.50;;;-0.55;69.49
78117;BME280;69042;59.120;37.904;2024-02-23T06:20:34;100388.22;;;-0.54;69.28
78117;BME280;69042;59.120;37.904;2024-02-23T06:23:00;100388.25;;;-0.53;69.35
78117;BME280;69042;59.120;37.904;2024-02-23T06:25:26;100384.84;;;-0.52;69.33
78117;BME280;69042;59.120;37.904;2024-02-23T06:27:52;100386.53;;;-0.52;68.96
78117;BME280;69042;59.120;37.904;2024-02-23T06:30:18;100398.53;;;-0.48;69.30
78117;BME280;69042;59.120;37.904;2024-02-23T06:32:44;100397.72;;;-0.47;69.07
78117;BME280;69042;59.120;37.904;2024-02-23T06:35:11;100390.81;;;-0.50;69.37
78117;BME280;69042;59.120;37.904;2024-02-23T06:37:38;100401.13;;;-0.45;69.25
78117;BME280;69042;59.120;37.904;2024-02-23T06:40:04;100397.72;;;-0.47;69.09
78117;BME280;69042;59.120;37.904;2024-02-23T06:42:30;100406.31;;;-0.40;69.25
78117;BME280;69042;59.120;37.904;2024-02-23T06:44:56;100411.44;;;-0.39;69.46
78117;BME280;69042;59.120;37.904;2024-02-23T06:47:23;100401.16;;;-0.39;69.46
78117;BME280;69042;59.120;37.904;2024-02-23T06:49:50;100409.75;;;-0.34;68.88
78117;BME280;69042;59.120;37.904;2024-02-23T06:52:16;100405.53;;;-0.29;69.61
78117;BME280;69042;59.120;37.904;2024-02-23T06:54:44;100408.09;;;-0.29;69.16
78117;BME280;69042;59.120;37.904;2024-02-23T06:57:11;100403.84;;;-0.27;69.45
78117;BME280;69042;59.120;37.904;2024-02-23T06:59:37;100408.97;;;-0.25;69.13
78117;BME280;69042;59.120;37.904;2024-02-23T07:02:03;100406.41;;;-0.25;69.29
78117;BME280;69042;59.120;37.904;2024-02-23T07:04:30;100402.13;;;-0.29;69.03
78117;BME280;69042;59.120;37.904;2024-02-23T07:06:56;100411.50;;;-0.30;69.16
78117;BME280;69042;59.120;37.904;2024-02-23T07:09:22;100410.69;;;-0.26;68.97
78117;BME280;69042;59.120;37.904;2024-02-23T07:11:48;100413.25;;;-0.26;68.89
78117;BME280;69042;59.120;37.904;2024-02-23T07:14:14;100410.69;;;-0.23;69.04
78117;BME280;69042;59.120;37.904;2024-02-23T07:16:42;100413.28;;;-0.21;69.41
78117;BME280;69042;59.120;37.904;2024-02-23T07:19:09;100411.56;;;-0.21;68.86
78117;BME280;69042;59.120;37.904;2024-02-23T07:21:35;100410.72;;;-0.19;68.79
78117;BME280;69042;59.120;37.904;2024-02-23T07:24:01;100414.16;;;-0.17;68.95
78117;BME280;69042;59.120;37.904;2024-02-23T07:26:27;100416.72;;;-0.16;68.93
78117;BME280;69042;59.120;37.904;2024-02-23T07:28:56;100426.19;;;-0.10;69.05
78117;BME280;69042;59.120;37.904;2024-02-23T07:31:23;100420.22;;;-0.08;69.07
78117;BME280;69042;59.120;37.904;2024-02-23T07:33:49;100427.13;;;-0.02;69.46
78117;BME280;69042;59.120;37.904;2024-02-23T07:36:17;100428.88;;;0.05;69.07
78117;BME280;69042;59.120;37.904;2024-02-23T07:38:43;100426.34;;;0.11;68.95
78117;BME280;69042;59.120;37.904;2024-02-23T07:41:11;100423.78;;;0.17;69.03
78117;BME280;69042;59.120;37.904;2024-02-23T07:43:37;100429.81;;;0.24;68.98
78117;BME280;69042;59.120;37.904;2024-02-23T07:46:03;100434.16;;;0.37;69.42
78117;BME280;69042;59.120;37.904;2024-02-23T07:48:30;100433.34;;;0.46;68.84
78117;BME280;69042;59.120;37.904;2024-02-23T07:50:57;100435.94;;;0.52;68.79
78117;BME280;69042;59.120;37.904;2024-02-23T07:53:23;100424.84;;;0.59;68.75
78117;BME280;69042;59.120;37.904;2024-02-23T07:55:49;100429.13;;;0.65;68.72
78117;BME280;69042;59.120;37.904;2024-02-23T07:58:16;100432.56;;;0.72;68.70
78117;BME280;69042;59.120;37.904;2024-02-23T08:00:42;100430.00;;;0.76;68.21
78117;BME280;69042;59.120;37.904;2024-02-23T08:03:08;100429.19;;;0.82;68.31
78117;BME280;69042;59.120;37.904;2024-02-23T08:05:34;100434.34;;;0.87;68.73
78117;BME280;69042;59.120;37.904;2024-02-23T08:08:00;100436.94;;;0.93;68.61
78117;BME280;69042;59.120;37.904;2024-02-23T08:10:27;100442.09;;;1.00;68.32
78117;BME280;69042;59.120;37.904;2024-02-23T08:12:53;100444.66;;;1.03;68.47
78117;BME280;69042;59.120;37.904;2024-02-23T08:15:19;100437.81;;;1.06;67.86
78117;BME280;69042;59.120;37.904;2024-02-23T08:17:45;100442.09;;;1.07;68.42
78117;BME280;69042;59.120;37.904;2024-02-23T08:20:12;100445.53;;;1.12;68.14
78117;BME280;69042;59.120;37.904;2024-02-23T08:22:38;100445.56;;;1.16;67.82
78117;BME280;69042;59.120;37.904;2024-02-23T08:25:04;100444.69;;;1.20;67.56
78117;BME280;69042;59.120;37.904;2024-02-23T08:27:30;100427.53;;;1.21;67.40
78117;BME280;69042;59.120;37.904;2024-02-23T08:29:57;100444.72;;;1.22;67.20
78117;BME280;69042;59.120;37.904;2024-02-23T08:32:23;100441.28;;;1.20;67.81
78117;BME280;69042;59.120;37.904;2024-02-23T08:34:49;100444.69;;;1.16;68.38
78117;BME280;69042;59.120;37.904;2024-02-23T08:37:16;100442.97;;;1.16;67.96
78117;BME280;69042;59.120;37.904;2024-02-23T08:39:42;100438.69;;;1.20;68.04
78117;BME280;69042;59.120;37.904;2024-02-23T08:42:08;100437.84;;;1.22;68.18
78117;BME280;69042;59.120;37.904;2024-02-23T08:44:34;100460.16;;;1.27;68.00
78117;BME280;69042;59.120;37.904;2024-02-23T08:47:01;100458.44;;;1.25;68.34
78117;BME280;69042;59.120;37.904;2024-02-23T08:49:28;100438.69;;;1.28;67.98
78117;BME280;69042;59.120;37.904;2024-02-23T08:51:54;100449.88;;;1.34;68.00
78117;BME280;69042;59.120;37.904;2024-02-23T08:54:20;100446.44;;;1.40;67.37
78117;BME280;69042;59.120;37.904;2024-02-23T08:56:46;100434.44;;;1.50;67.60
78117;BME280;69042;59.120;37.904;2024-02-23T08:59:12;100431.84;;;1.54;67.69
78117;BME280;69042;59.120;37.904;2024-02-23T09:01:38;100442.13;;;1.57;67.38
78117;BME280;69042;59.120;37.904;2024-02-23T09:04:05;100441.31;;;1.69;67.84
78117;BME280;69042;59.120;37.904;2024-02-23T09:06:31;100440.44;;;1.76;67.31
78117;BME280;69042;59.120;37.904;2024-02-23T09:08:58;100439.56;;;1.85;67.69
78117;BME280;69042;59.120;37.904;2024-02-23T09:11:25;100433.53;;;1.92;67.04
78117;BME280;69042;59.120;37.904;2024-02-23T09:13:51;100428.38;;;1.98;66.96
78117;BME280;69042;59.120;37.904;2024-02-23T09:16:17;100412.91;;;2.03;67.30
78117;BME280;69042;59.120;37.904;2024-02-23T09:18:44;100434.38;;;2.02;66.61
78117;BME280;69042;59.120;37.904;2024-02-23T09:21:11;100436.09;;;1.95;66.65
78117;BME280;69042;59.120;37.904;2024-02-23T09:23:37;100453.28;;;1.96;66.01
78117;BME280;69042;59.120;37.904;2024-02-23T09:26:08;100448.13;;;1.93;66.06
78117;BME280;69042;59.120;37.904;2024-02-23T09:28:35;100445.56;;;1.88;66.20
78117;BME280;69042;59.120;37.904;2024-02-23T09:31:01;100445.56;;;1.84;66.12
78117;BME280;69042;59.120;37.904;2024-02-23T09:33:29;100443.84;;;1.81;66.65
78117;BME280;69042;59.120;37.904;2024-02-23T09:35:55;100421.53;;;1.80;66.28
78117;BME280;69042;59.120;37.904;2024-02-23T09:38:21;100439.56;;;1.77;66.17
78117;BME280;69042;59.120;37.904;2024-02-23T09:40:51;100437.84;;;1.78;66.26
78117;BME280;69042;59.120;37.904;2024-02-23T09:43:17;100439.56;;;1.80;66.94
78117;BME280;69042;59.120;37.904;2024-02-23T09:45:46;100438.69;;;1.84;66.33
78117;BME280;69042;59.120;37.904;2024-02-23T09:48:14;100431.81;;;1.88;66.27
78117;BME280;69042;59.120;37.904;2024-02-23T09:50:43;100442.09;;;1.96;66.64
78117;BME280;69042;59.120;37.904;2024-02-23T09:53:11;100425.78;;;2.00;66.71
78117;BME280;69042;59.120;37.904;2024-02-23T09:55:39;100439.50;;;2.06;66.20
78117;BME280;69042;59.120;37.904;2024-02-23T09:58:06;100434.38;;;2.03;65.90
78117;BME280;69042;59.120;37.904;2024-02-23T10:00:36;100433.53;;;1.95;66.39
78117;BME280;69042;59.120;37.904;2024-02-23T10:03:04;100435.25;;;1.93;65.82
78117;BME280;69042;59.120;37.904;2024-02-23T10:05:31;100429.25;;;1.90;66.22
78117;BME280;69042;59.120;37.904;2024-02-23T10:07:58;100438.69;;;1.95;66.88
78117;BME280;69042;59.120;37.904;2024-02-23T10:10:38;100435.25;;;1.93;66.57
78117;BME280;69042;59.120;37.904;2024-02-23T10:13:04;100440.41;;;1.96;66.15
78117;BME280;69042;59.120;37.904;2024-02-23T10:15:30;100441.28;;;1.92;66.43
78117;BME280;69042;59.120;37.904;2024-02-23T10:17:57;100429.25;;;1.90;66.19
78117;BME280;69042;59.120;37.904;2024-02-23T10:20:23;100448.13;;;1.84;65.83
78117;BME280;69042;59.120;37.904;2024-02-23T10:22:49;100445.56;;;1.84;66.73
78117;BME280;69042;59.120;37.904;2024-02-23T10:25:17;100441.28;;;1.83;66.59
78117;BME280;69042;59.120;37.904;2024-02-23T10:27:43;100443.84;;;1.86;66.25
78117;BME280;69042;59.120;37.904;2024-02-23T10:30:09;100442.13;;;1.88;66.17
78117;BME280;69042;59.120;37.904;2024-02-23T10:32:38;100450.72;;;1.90;66.21
78117;BME280;69042;59.120;37.904;2024-02-23T10:35:13;100442.13;;;1.88;66.30
78117;BME280;69042;59.120;37.904;2024-02-23T10:37:43;100448.13;;;1.93;66.68
78117;BME280;69042;59.120;37.904;2024-02-23T10:40:11;100452.41;;;2.00;66.60
78117;BME280;69042;59.120;37.904;2024-02-23T10:42:40;100461.88;;;2.06;66.96
78117;BME280;69042;59.120;37.904;2024-02-23T10:45:10;100459.28;;;2.11;66.91
78117;BME280;69042;59.120;37.904;2024-02-23T10:47:37;100446.41;;;2.12;66.62
78117;BME280;69042;59.120;37.904;2024-02-23T10:50:03;100448.09;;;2.18;66.17
78117;BME280;69042;59.120;37.904;2024-02-23T10:52:31;100454.06;;;2.23;66.45
78117;BME280;69042;59.120;37.904;2024-02-23T10:55:02;100457.53;;;2.26;66.15
78117;BME280;69042;59.120;37.904;2024-02-23T10:57:31;100449.78;;;2.28;66.45
78117;BME280;69042;59.120;37.904;2024-02-23T11:00:00;100459.22;;;2.29;66.18
78117;BME280;69042;59.120;37.904;2024-02-23T11:02:28;100463.53;;;2.28;66.27
78117;BME280;69042;59.120;37.904;2024-02-23T11:04:57;100462.66;;;2.31;66.46
78117;BME280;69042;59.120;37.904;2024-02-23T11:07:24;100466.09;;;2.27;66.30
78117;BME280;69042;59.120;37.904;2024-02-23T11:10:00;100465.25;;;2.20;65.67
78117;BME280;69042;59.120;37.904;2024-02-23T11:12:29;100472.16;;;2.09;65.48
78117;BME280;69042;59.120;37.904;2024-02-23T11:14:59;100471.34;;;2.01;65.48
78117;BME280;69042;59.120;37.904;2024-02-23T11:17:31;100470.47;;;1.93;65.96
78117;BME280;69042;59.120;37.904;2024-02-23T11:19:58;100466.19;;;1.85;65.63
78117;BME280;69042;59.120;37.904;2024-02-23T11:22:33;100465.34;;;1.79;67.01
78117;BME280;69042;59.120;37.904;2024-02-23T11:25:03;100473.91;;;1.76;66.79
78117;BME280;69042;59.120;37.904;2024-02-23T11:27:36;100482.50;;;1.67;66.89
78117;BME280;69042;59.120;37.904;2024-02-23T11:32:41;100479.06;;;1.64;67.82
78117;BME280;69042;59.120;37.904;2024-02-23T11:35:12;100486.78;;;1.65;67.82
78117;BME280;69042;59.120;37.904;2024-02-23T11:37:49;100483.38;;;1.70;66.97
78117;BME280;69042;59.120;37.904;2024-02-23T11:40:22;100481.66;;;1.75;67.71
78117;BME280;69042;59.120;37.904;2024-02-23T11:42:50;100484.22;;;1.76;67.19
78117;BME280;69042;59.120;37.904;2024-02-23T11:45:16;100470.47;;;1.82;67.42
78117;BME280;69042;59.120;37.904;2024-02-23T11:47:43;100476.50;;;1.85;66.86
78117;BME280;69042;59.120;37.904;2024-02-23T11:50:10;100476.47;;;1.88;67.39
78117;BME280;69042;59.120;37.904;2024-02-23T11:52:39;100472.19;;;1.92;66.77
78117;BME280;69042;59.120;37.904;2024-02-23T11:55:06;100463.59;;;1.95;67.22
78117;BME280;69042;59.120;37.904;2024-02-23T11:57:34;100461.88;;;2.01;66.91
78117;BME280;69042;59.120;37.904;2024-02-23T12:00:04;100460.97;;;2.22;67.72
78117;BME280;69042;59.120;37.904;2024-02-23T12:02:34;100461.75;;;2.49;67.72
78117;BME280;69042;59.120;37.904;2024-02-23T12:05:01;100466.84;;;2.67;67.37
78117;BME280;69042;59.120;37.904;2024-02-23T12:07:31;100462.47;;;2.80;67.05
78117;BME280;69042;59.120;37.904;2024-02-23T12:09:58;100449.56;;;2.85;66.41
78117;BME280;69042;59.120;37.904;2024-02-23T12:12:27;100456.44;;;2.81;66.50
78117;BME280;69042;59.120;37.904;2024-02-23T12:14:54;100456.53;;;2.70;66.72
78117;BME280;69042;59.120;37.904;2024-02-23T12:17:20;100467.69;;;2.63;66.77
78117;BME280;69042;59.120;37.904;2024-02-23T12:19:46;100463.44;;;2.56;66.82
78117;BME280;69042;59.120;37.904;2024-02-23T12:22:12;100452.28;;;2.51;66.77
78117;BME280;69042;59.120;37.904;2024-02-23T12:24:41;100449.72;;;2.45;66.68
78117;BME280;69042;59.120;37.904;2024-02-23T12:27:07;100446.28;;;2.44;66.84
78117;BME280;69042;59.120;37.904;2024-02-23T12:29:33;100454.06;;;2.41;66.82
78117;BME280;69042;59.120;37.904;2024-02-23T12:32:06;100444.59;;;2.39;66.70
78117;BME280;69042;59.120;37.904;2024-02-23T12:34:33;100450.59;;;2.38;66.91
78117;BME280;69042;59.120;37.904;2024-02-23T12:37:02;100454.91;;;2.39;67.06
78117;BME280;69042;59.120;37.904;2024-02-23T12:39:29;100454.03;;;2.38;67.08
78117;BME280;69042;59.120;37.904;2024-02-23T12:41:55;100454.06;;;2.29;66.12
78117;BME280;69042;59.120;37.904;2024-02-23T12:44:22;100452.38;;;2.28;66.76